Terminal Aerodrome Forecast
Issued by NWS

Home | Current Version | Previous Version | Text Only | Print | Product List | Glossary On
Versions: 1 2 3 4 5 6 7 8 9 10 11 12 13 14 15 16 17 18 19 20 21 22 23 24 25 26 27 28 29
000
FTUS41 KBUF 270300 AAA
TAFJHW
TAF AMD
KJHW 270320Z 2703/2724 35007KT 5SM -SN BKN060
     FM270500 34004KT P6SM VCSH OVC020
     FM270900 33004KT P6SM BKN035
     FM271100 VRB03KT P6SM BKN070
     FM271300 29004KT P6SM FEW035
     FM271800 28008KT P6SM SKC
      AMD LTD TO CLD VIS AND WIND=

USA.gov is the U.S. government's official web portal to all federal, state and local government web resources and services.